Time;durP1;ratioP1;P1;durP2;ratioP2;P2;SDS_P1;SDS_P2;PMS_P1;PMS_P2;Temp;Humidity;BMP_temperature;BMP_pressure;BME280_temperature;BME280_humidity;BME280_pressure;Samples;Min_cycle;Max_cycle;Signal;HPM_P1;HPM_P2
2021/08/02 00:01:07;;;;;;;5.03;1.20;;;18.20;64.00;;;;;;5095546;28;20064;-62
2021/08/02 00:04:10;;;;;;;3.75;1.30;;;18.40;62.30;;;;;;5096059;28;20031;-64
2021/08/02 00:06:53;;;;;;;;;;;18.50;62.90;;;;;;5094219;28;20471;-65
2021/08/02 00:09:22;;;;;;;;;;;18.60;62.20;;;;;;5097424;28;19946;-57
2021/08/02 00:12:05;;;;;;;2.33;1.15;;;18.70;61.60;;;;;;5099830;28;19911;-58
2021/08/02 00:14:34;;;;;;;5.43;1.77;;;18.80;61.20;;;;;;5096751;28;20039;-61
2021/08/02 00:17:04;;;;;;;3.80;1.38;;;18.90;61.40;;;;;;5096356;28;20037;-63
2021/08/02 00:19:32;;;;;;;4.00;1.20;;;19.00;61.50;;;;;;5075268;28;21136;-62
2021/08/02 00:22:02;;;;;;;3.92;1.30;;;19.10;60.50;;;;;;5101831;28;20033;-59
2021/08/02 00:24:30;;;;;;;4.50;1.40;;;19.20;61.00;;;;;;5080099;28;20035;-58
2021/08/02 00:26:58;;;;;;;10.00;3.05;;;19.30;60.20;;;;;;5107255;28;20514;-60
2021/08/02 00:29:30;;;;;;;5.55;1.50;;;19.30;58.30;;;;;;5107414;28;20059;-59
2021/08/02 00:32:00;;;;;;;5.70;1.70;;;19.30;59.30;;;;;;5107712;28;20474;-56
2021/08/02 00:34:28;;;;;;;15.32;3.97;;;19.20;58.50;;;;;;5102937;28;20047;-57
2021/08/02 00:37:05;;;;;;;11.60;4.75;;;19.20;58.40;;;;;;5107666;28;20432;-55
2021/08/02 00:39:55;;;;;;;19.70;8.68;;;19.10;58.30;;;;;;5106536;28;20034;-58
2021/08/02 00:42:58;;;;;;;25.42;10.95;;;19.00;58.40;;;;;;5107317;28;20172;-56
2021/08/02 00:45:35;;;;;;;13.82;4.38;;;19.10;57.60;;;;;;5107621;28;20107;-59
2021/08/02 00:48:11;;;;;;;18.60;8.73;;;19.20;56.60;;;;;;5107129;28;20054;-54
2021/08/02 00:50:43;;;;;;;21.52;18.98;;;19.10;57.10;;;;;;5106445;28;20641;-56
2021/08/02 00:53:22;;;;;;;14.18;6.40;;;19.20;57.70;;;;;;5106701;28;20024;-58
2021/08/02 00:55:53;;;;;;;15.40;9.75;;;19.30;56.80;;;;;;5106288;28;20426;-57
2021/08/02 00:58:25;;;;;;;17.02;11.70;;;19.50;56.80;;;;;;5106813;28;20031;-56
2021/08/02 01:00:54;;;;;;;21.70;10.52;;;19.60;56.80;;;;;;5106274;28;20031;-56
2021/08/02 01:03:22;;;;;;;16.08;9.15;;;19.70;56.80;;;;;;5106544;28;20035;-63
2021/08/02 01:05:52;;;;;;;16.75;9.38;;;19.90;57.00;;;;;;5107069;28;20398;-60
2021/08/02 01:08:23;;;;;;;15.77;9.40;;;19.80;58.00;;;;;;5107796;28;20035;-64
2021/08/02 01:10:57;;;;;;;14.05;11.52;;;19.90;58.20;;;;;;5107000;28;20032;-62
2021/08/02 01:13:28;;;;;;;16.13;11.20;;;20.00;57.90;;;;;;5107238;28;20096;-61
2021/08/02 01:15:59;;;;;;;16.90;13.73;;;20.20;57.50;;;;;;5107372;28;20090;-61
2021/08/02 01:18:29;;;;;;;16.05;11.35;;;20.20;58.10;;;;;;5107200;28;20040;-61
2021/08/02 01:21:03;;;;;;;16.05;10.73;;;20.30;57.70;;;;;;5106281;28;20031;-63
2021/08/02 01:23:31;;;;;;;20.75;10.57;;;20.40;57.60;;;;;;5106304;28;20032;-61
2021/08/02 01:25:59;;;;;;;14.50;9.57;;;20.50;57.60;;;;;;5106363;28;20040;-58
2021/08/02 01:28:26;;;;;;;13.70;11.18;;;20.60;57.00;;;;;;5106521;28;20027;-58
2021/08/02 01:31:03;;;;;;;11.30;9.77;;;20.70;57.50;;;;;;5106140;28;20087;-61
2021/08/02 01:33:33;;;;;;;16.38;11.15;;;20.80;57.40;;;;;;5106207;28;20463;-62
2021/08/02 01:36:05;;;;;;;10.70;8.27;;;20.80;57.30;;;;;;5106656;28;20036;-60
2021/08/02 01:38:34;;;;;;;14.30;9.82;;;20.90;55.50;;;;;;5106559;28;20043;-60
2021/08/02 01:41:03;;;;;;;16.35;8.70;;;20.70;56.40;;;;;;5106197;28;20110;-60
2021/08/02 01:43:31;;;;;;;13.52;8.13;;;20.80;55.90;;;;;;5088110;28;20074;-62
2021/08/02 01:46:11;;;;;;;13.80;9.70;;;20.90;56.10;;;;;;5106008;28;20556;-61
2021/08/02 01:49:14;;;;;;;15.48;10.43;;;20.90;56.10;;;;;;5102441;28;20035;-62
2021/08/02 01:51:44;;;;;;;14.80;9.32;;;20.80;56.40;;;;;;5105563;28;20062;-61
2021/08/02 01:54:32;;;;;;;12.02;9.30;;;20.80;56.80;;;;;;5087131;28;20038;-60
2021/08/02 01:57:21;;;;;;;12.10;7.00;;;20.70;58.20;;;;;;5105434;28;20042;-61
2021/08/02 02:00:02;;;;;;;13.43;8.48;;;20.80;56.50;;;;;;5105695;28;20038;-63
2021/08/02 02:02:32;;;;;;;11.68;8.27;;;20.70;57.30;;;;;;5104920;28;20130;-61
2021/08/02 02:05:19;;;;;;;13.27;6.75;;;20.70;58.00;;;;;;5105612;28;20075;-61
2021/08/02 02:07:52;;;;;;;12.40;7.57;;;20.70;57.10;;;;;;5087308;28;20036;-60
2021/08/02 02:10:22;;;;;;;12.55;6.72;;;20.70;57.90;;;;;;5105315;28;20038;-58
2021/08/02 02:12:50;;;;;;;11.25;6.78;;;20.80;56.40;;;;;;5105160;28;20031;-62
2021/08/02 02:15:18;;;;;;;14.30;6.32;;;20.70;57.90;;;;;;5105079;28;20043;-61
2021/08/02 02:17:47;;;;;;;11.98;7.22;;;20.90;56.30;;;;;;5084341;28;20104;-61
2021/08/02 02:20:15;;;;;;;9.75;5.93;;;20.90;58.30;;;;;;5093258;28;20063;-62
2021/08/02 02:22:44;;;;;;;11.10;5.72;;;21.10;56.40;;;;;;5095184;28;20040;-61
2021/08/02 02:25:12;;;;;;;10.65;7.30;;;21.10;56.40;;;;;;5100087;28;20543;-64
2021/08/02 02:27:40;;;;;;;11.57;6.00;;;21.10;58.60;;;;;;5098711;28;20032;-59
2021/08/02 02:30:09;;;;;;;12.55;6.03;;;21.30;55.80;;;;;;5093601;28;20479;-59
2021/08/02 02:32:38;;;;;;;16.30;5.85;;;21.20;55.30;;;;;;5084250;28;20073;-54
2021/08/02 02:35:06;;;;;;;14.15;5.07;;;21.10;55.50;;;;;;5087235;28;20028;-58
2021/08/02 02:37:34;;;;;;;17.55;4.35;;;21.10;56.10;;;;;;5104930;28;20496;-56
2021/08/02 02:40:04;;;;;;;8.10;4.10;;;21.00;55.80;;;;;;5099107;28;20022;-57
2021/08/02 02:42:32;;;;;;;13.25;5.28;;;20.90;56.30;;;;;;5098273;28;20028;-58
2021/08/02 02:45:01;;;;;;;10.48;5.05;;;20.80;56.30;;;;;;5103042;28;20432;-61
2021/08/02 02:47:31;;;;;;;8.88;4.43;;;20.70;57.60;;;;;;5082651;28;20669;-64
2021/08/02 02:50:02;;;;;;;7.63;3.47;;;20.50;58.40;;;;;;5093524;28;20036;-62
2021/08/02 02:52:30;;;;;;;12.20;4.35;;;20.40;58.70;;;;;;5085273;28;20036;-56
2021/08/02 02:54:58;;;;;;;9.65;3.83;;;20.40;58.40;;;;;;5092140;28;20034;-60
2021/08/02 02:57:26;;;;;;;5.05;2.90;;;20.50;59.10;;;;;;5074770;28;20042;-59
2021/08/02 02:59:53;;;;;;;8.90;3.65;;;20.50;57.20;;;;;;5096260;28;20548;-59
2021/08/02 03:02:22;;;;;;;11.38;3.95;;;20.50;57.90;;;;;;5092302;28;20024;-59
2021/08/02 03:04:56;;;;;;;8.52;4.38;;;20.40;57.90;;;;;;5090615;28;20491;-60
2021/08/02 03:07:26;;;;;;;8.05;4.30;;;20.30;57.90;;;;;;5097490;28;20118;-60
2021/08/02 03:09:53;;;;;;;13.60;5.03;;;20.40;59.30;;;;;;5087887;28;20059;-60
2021/08/02 03:12:21;;;;;;;10.68;4.18;;;20.30;57.80;;;;;;5094316;28;20031;-62
2021/08/02 03:14:48;;;;;;;13.00;5.03;;;20.30;58.10;;;;;;5087296;28;21128;-61
2021/08/02 03:17:16;;;;;;;12.10;6.07;;;20.30;60.60;;;;;;5089184;28;20036;-55
2021/08/02 03:19:43;;;;;;;7.80;5.00;;;20.30;59.50;;;;;;5091569;28;20032;-66
2021/08/02 03:22:33;;;;;;;10.82;5.38;;;20.30;60.30;;;;;;5093806;28;20075;-67
2021/08/02 03:25:27;;;;;;;13.27;5.72;;;20.40;60.70;;;;;;5087167;28;20085;-64
2021/08/02 03:27:56;;;;;;;9.82;5.22;;;20.50;59.00;;;;;;5090463;28;20664;-61
2021/08/02 03:30:26;;;;;;;12.55;6.15;;;20.50;59.00;;;;;;5091517;28;20047;-60
2021/08/02 03:32:54;;;;;;;14.15;6.38;;;20.40;59.50;;;;;;5092063;28;20023;-60
2021/08/02 03:35:23;;;;;;;11.38;5.78;;;20.40;60.40;;;;;;5096708;28;20016;-66
2021/08/02 03:37:51;;;;;;;10.52;5.72;;;20.40;58.10;;;;;;5099555;28;20114;-65
2021/08/02 03:40:19;;;;;;;11.38;5.78;;;20.40;59.60;;;;;;5094086;28;20020;-61
2021/08/02 03:42:48;;;;;;;9.75;5.10;;;20.40;60.60;;;;;;5087294;28;20024;-59
2021/08/02 03:45:19;;;;;;;10.55;5.20;;;20.50;59.70;;;;;;5088140;28;20020;-60
2021/08/02 03:47:47;;;;;;;8.68;4.10;;;20.40;60.70;;;;;;5099543;28;20131;-58
2021/08/02 03:50:14;;;;;;;8.55;4.53;;;20.50;58.50;;;;;;5087588;28;20028;-58
2021/08/02 03:52:42;;;;;;;9.63;5.07;;;20.70;58.40;;;;;;5098281;28;20653;-59
2021/08/02 03:55:12;;;;;;;9.50;4.75;;;20.60;60.50;;;;;;5107975;28;20035;-53
2021/08/02 03:57:40;;;;;;;11.80;4.88;;;20.60;58.50;;;;;;5108098;28;20039;-60
2021/08/02 04:00:08;;;;;;;7.22;4.03;;;20.50;58.30;;;;;;5088439;28;20446;-60
2021/08/02 04:02:38;;;;;;;12.75;5.05;;;20.60;58.50;;;;;;5091538;28;20024;-57
2021/08/02 04:05:06;;;;;;;27.83;9.40;;;20.60;58.70;;;;;;5098073;28;20028;-57
2021/08/02 04:07:33;;;;;;;25.50;9.75;;;20.60;58.70;;;;;;5085832;28;20097;-54
2021/08/02 04:10:01;;;;;;;21.88;10.48;;;20.60;59.10;;;;;;5089595;28;20024;-56
2021/08/02 04:12:28;;;;;;;32.05;15.38;;;20.60;58.70;;;;;;5100710;28;20043;-61
2021/08/02 04:14:55;;;;;;;38.25;19.02;;;20.70;61.00;;;;;;5095923;28;20611;-61
2021/08/02 04:17:23;;;;;;;42.30;20.02;;;20.80;61.00;;;;;;5098833;28;20783;-57
2021/08/02 04:19:50;;;;;;;33.75;16.17;;;20.90;60.90;;;;;;5095995;28;20049;-60
2021/08/02 04:22:17;;;;;;;36.42;16.65;;;21.00;58.60;;;;;;5096975;28;20032;-64
2021/08/02 04:24:45;;;;;;;37.72;16.00;;;21.10;57.00;;;;;;5097857;28;20027;-62
2021/08/02 04:27:12;;;;;;;43.42;20.58;;;21.10;58.60;;;;;;5094961;28;20051;-61
2021/08/02 04:29:39;;;;;;;36.13;16.35;;;21.10;59.30;;;;;;5093465;28;20510;-62
2021/08/02 04:32:19;;;;;;;45.15;20.25;;;21.10;57.40;;;;;;5096458;28;20028;-61
2021/08/02 04:34:47;;;;;;;37.78;18.55;;;21.00;58.00;;;;;;5094571;28;20012;-61
2021/08/02 04:37:15;;;;;;;35.03;15.13;;;20.80;59.90;;;;;;5094922;28;20040;-57
2021/08/02 04:39:58;;;;;;;34.13;16.52;;;20.70;58.30;;;;;;5090279;28;20027;-62
2021/08/02 04:42:26;;;;;;;38.15;17.23;;;20.70;61.00;;;;;;5078586;28;20114;-61
2021/08/02 04:44:54;;;;;;;45.20;18.30;;;20.70;60.90;;;;;;5096725;28;20043;-61
2021/08/02 04:47:21;;;;;;;34.65;16.65;;;20.80;61.10;;;;;;5092159;28;20040;-60
2021/08/02 04:49:49;;;;;;;41.30;19.90;;;20.80;59.80;;;;;;5093829;28;20031;-63
2021/08/02 04:52:16;;;;;;;28.17;13.02;;;20.90;61.00;;;;;;5096849;28;20359;-64
2021/08/02 04:54:49;;;;;;;32.88;15.65;;;21.00;59.80;;;;;;5076685;28;20076;-62
2021/08/02 04:57:17;;;;;;;35.80;17.50;;;20.90;59.00;;;;;;5095726;28;20036;-64
2021/08/02 04:59:44;;;;;;;32.63;14.90;;;21.00;60.60;;;;;;5093710;28;21278;-63
2021/08/02 05:02:12;;;;;;;29.65;16.00;;;21.00;59.10;;;;;;5100733;28;20030;-64
2021/08/02 05:04:41;;;;;;;33.97;17.00;;;21.20;60.20;;;;;;5093535;28;20047;-63
2021/08/02 05:07:08;;;;;;;35.80;17.00;;;21.20;58.80;;;;;;5097602;28;20032;-61
2021/08/02 05:09:35;;;;;;;39.28;18.75;;;21.10;59.30;;;;;;5089703;28;20054;-63
2021/08/02 05:12:08;;;;;;;27.38;13.80;;;21.00;59.20;;;;;;5101427;28;20032;-61
2021/08/02 05:14:35;;;;;;;32.15;16.23;;;20.90;58.90;;;;;;5098407;28;20124;-61
2021/08/02 05:17:03;;;;;;;37.28;18.20;;;20.70;60.50;;;;;;5086498;28;20028;-60
2021/08/02 05:19:30;;;;;;;37.20;15.35;;;20.60;61.40;;;;;;5086569;28;20054;-60
2021/08/02 05:21:58;;;;;;;34.83;17.08;;;20.70;61.10;;;;;;5085981;28;20061;-59
2021/08/02 05:24:28;;;;;;;30.98;14.80;;;20.70;62.50;;;;;;5085155;28;20043;-62
2021/08/02 05:26:55;;;;;;;29.95;14.43;;;20.70;61.80;;;;;;5085353;28;20535;-60
2021/08/02 05:29:23;;;;;;;25.70;14.30;;;20.80;61.40;;;;;;5086867;28;20052;-63
2021/08/02 05:31:50;;;;;;;30.58;15.85;;;20.90;60.60;;;;;;5086190;28;20646;-62
2021/08/02 05:34:18;;;;;;;32.47;15.90;;;21.00;60.90;;;;;;5086081;28;20076;-61
2021/08/02 05:36:45;;;;;;;30.48;16.45;;;21.00;60.10;;;;;;5086174;28;21154;-61
2021/08/02 05:39:13;;;;;;;25.67;11.70;;;21.10;60.90;;;;;;5086064;28;20062;-60
2021/08/02 05:41:40;;;;;;;21.75;11.98;;;21.20;59.20;;;;;;5085587;28;20028;-61
2021/08/02 05:44:08;;;;;;;25.20;11.65;;;21.20;59.20;;;;;;5085522;28;20848;-62
2021/08/02 05:46:35;;;;;;;23.63;13.50;;;21.20;59.50;;;;;;5067142;28;20040;-61
2021/08/02 05:49:02;;;;;;;21.67;11.55;;;21.00;60.30;;;;;;5085186;28;20028;-61
2021/08/02 05:51:30;;;;;;;28.15;14.27;;;21.10;58.40;;;;;;5085375;28;20093;-63
2021/08/02 05:53:57;;;;;;;26.25;14.05;;;21.00;60.10;;;;;;5085357;28;20028;-58
2021/08/02 05:56:25;;;;;;;30.38;13.93;;;20.90;60.70;;;;;;5085298;28;20063;-59
2021/08/02 05:58:53;;;;;;;24.67;13.75;;;20.80;60.40;;;;;;5066618;28;20474;-60
2021/08/02 06:01:20;;;;;;;23.83;13.60;;;20.70;59.90;;;;;;5085503;28;20055;-60
2021/08/02 06:03:47;;;;;;;27.50;11.90;;;20.70;60.80;;;;;;5080310;27;20081;-59
2021/08/02 06:06:16;;;;;;;26.02;12.38;;;20.70;60.80;;;;;;5085326;28;20046;-62
2021/08/02 06:08:44;;;;;;;19.65;10.82;;;20.60;60.50;;;;;;5092507;28;20042;-53
2021/08/02 06:11:11;;;;;;;21.08;10.48;;;20.60;61.20;;;;;;5091573;28;20119;-61
2021/08/02 06:13:39;;;;;;;22.95;10.88;;;20.50;60.30;;;;;;5096125;28;20019;-59
2021/08/02 06:16:07;;;;;;;21.90;13.15;;;20.50;61.00;;;;;;5076978;28;20034;-61
2021/08/02 06:18:34;;;;;;;24.40;12.40;;;20.30;61.70;;;;;;5097022;28;20157;-59
2021/08/02 06:21:01;;;;;;;24.38;11.77;;;20.20;62.10;;;;;;5092313;28;20031;-60
2021/08/02 06:23:30;;;;;;;24.20;11.38;;;20.10;62.60;;;;;;5096565;28;20058;-56
2021/08/02 06:25:58;;;;;;;22.67;11.52;;;20.00;62.70;;;;;;5095976;28;20394;-61
2021/08/02 06:28:25;;;;;;;20.65;11.15;;;19.80;63.20;;;;;;5089980;28;20061;-60
2021/08/02 06:30:52;;;;;;;23.10;10.90;;;19.70;63.70;;;;;;5095282;28;20705;-61
2021/08/02 06:33:23;;;;;;;25.00;11.00;;;19.60;64.00;;;;;;5081978;28;20473;-63
2021/08/02 06:35:50;;;;;;;21.15;9.90;;;19.60;64.10;;;;;;5076518;28;20040;-61
2021/08/02 06:38:18;;;;;;;17.25;8.93;;;19.50;64.40;;;;;;5074399;28;20035;-64
2021/08/02 06:40:45;;;;;;;17.70;8.82;;;19.40;64.80;;;;;;5096757;28;20496;-60
2021/08/02 06:43:13;;;;;;;21.33;10.57;;;19.40;64.60;;;;;;5099413;28;20813;-65
2021/08/02 06:45:45;;;;;;;17.55;9.82;;;19.30;65.30;;;;;;5081215;28;20498;-61
2021/08/02 06:48:14;;;;;;;19.00;10.32;;;19.20;65.70;;;;;;5087449;28;20097;-63
2021/08/02 06:50:41;;;;;;;19.70;9.55;;;19.10;66.20;;;;;;5092320;28;20039;-66
2021/08/02 06:53:08;;;;;;;18.38;9.88;;;19.10;66.00;;;;;;5092315;28;20032;-64
2021/08/02 06:55:35;;;;;;;20.38;9.57;;;19.00;66.90;;;;;;5094959;28;20028;-61
2021/08/02 06:58:03;;;;;;;18.98;8.93;;;18.90;66.90;;;;;;5097434;28;20062;-60
2021/08/02 07:00:30;;;;;;;19.83;8.80;;;18.90;67.10;;;;;;5096152;28;20554;-59
2021/08/02 07:02:58;;;;;;;24.25;9.85;;;18.80;67.50;;;;;;5083867;28;20040;-60
2021/08/02 07:05:27;;;;;;;19.42;8.32;;;18.80;67.10;;;;;;5083238;28;20034;-63
2021/08/02 07:07:55;;;;;;;15.13;8.80;;;18.80;67.10;;;;;;5086163;28;20043;-59
2021/08/02 07:10:22;;;;;;;20.95;10.02;;;18.70;67.70;;;;;;5088455;28;20052;-59
2021/08/02 07:12:49;;;;;;;15.05;8.15;;;18.60;68.30;;;;;;5088091;28;20438;-62
2021/08/02 07:15:17;;;;;;;14.88;8.02;;;18.60;68.00;;;;;;5087837;28;20078;-60
2021/08/02 07:17:44;;;;;;;14.23;7.78;;;18.60;68.50;;;;;;5088346;28;20032;-61
2021/08/02 07:20:12;;;;;;;14.18;7.93;;;18.50;68.10;;;;;;5088156;28;20127;-60
2021/08/02 07:22:40;;;;;;;15.30;8.20;;;18.50;68.00;;;;;;5087655;28;20490;-59
2021/08/02 07:25:07;;;;;;;14.20;7.10;;;18.50;68.70;;;;;;5087611;28;20039;-61
2021/08/02 07:27:38;;;;;;;14.95;7.30;;;18.50;68.70;;;;;;5087690;28;20510;-59
2021/08/02 07:30:08;;;;;;;17.00;7.75;;;18.40;68.90;;;;;;5087408;28;20055;-59
2021/08/02 07:32:36;;;;;;;16.33;8.05;;;18.40;69.10;;;;;;5088205;28;20085;-61
2021/08/02 07:35:04;;;;;;;16.02;6.97;;;18.30;68.90;;;;;;5088196;28;20036;-58
2021/08/02 07:37:31;;;;;;;12.82;6.68;;;18.30;69.40;;;;;;5087207;28;20138;-55
2021/08/02 07:39:59;;;;;;;13.32;7.28;;;18.30;68.90;;;;;;5088735;28;20064;-61
2021/08/02 07:42:26;;;;;;;16.60;7.10;;;18.20;69.30;;;;;;5088696;28;20031;-62
2021/08/02 07:44:54;;;;;;;13.52;7.38;;;18.20;69.40;;;;;;5087909;28;20597;-61
2021/08/02 07:47:22;;;;;;;14.77;6.82;;;18.20;69.30;;;;;;5091317;28;20376;-60
2021/08/02 07:49:49;;;;;;;17.95;6.80;;;18.20;69.70;;;;;;5089566;28;20024;-61
2021/08/02 07:52:16;;;;;;;15.23;7.43;;;18.10;69.70;;;;;;5088306;28;20028;-58
2021/08/02 07:54:45;;;;;;;13.18;6.53;;;18.10;70.10;;;;;;5087665;28;20028;-62
2021/08/02 07:57:13;;;;;;;13.40;6.60;;;18.10;70.00;;;;;;5088181;28;20075;-62
2021/08/02 07:59:43;;;;;;;15.30;6.40;;;18.10;70.00;;;;;;5087669;28;20373;-62
2021/08/02 08:02:10;;;;;;;13.77;6.60;;;18.10;70.00;;;;;;5070268;28;20546;-61
2021/08/02 08:04:38;;;;;;;12.80;6.03;;;18.10;70.20;;;;;;5087870;28;20620;-60
2021/08/02 08:07:05;;;;;;;11.45;5.45;;;18.00;70.20;;;;;;5087061;28;20044;-62
2021/08/02 08:09:36;;;;;;;9.00;5.70;;;18.00;70.00;;;;;;5087502;28;20040;-58
2021/08/02 08:12:05;;;;;;;13.52;6.20;;;18.00;70.30;;;;;;5087654;28;20047;-61
2021/08/02 08:14:32;;;;;;;12.32;5.70;;;18.00;70.40;;;;;;5087193;28;20031;-61
2021/08/02 08:16:59;;;;;;;13.73;6.15;;;18.00;70.60;;;;;;5069619;28;20028;-62
2021/08/02 08:19:27;;;;;;;11.98;5.63;;;17.90;70.50;;;;;;5086365;28;20039;-61
2021/08/02 08:21:58;;;;;;;14.35;5.88;;;17.90;70.50;;;;;;5087403;28;20058;-60
2021/08/02 08:24:49;;;;;;;12.00;6.07;;;17.90;70.50;;;;;;5087748;28;20043;-60
2021/08/02 08:27:17;;;;;;;13.70;5.85;;;17.90;70.60;;;;;;5087088;28;20064;-60
2021/08/02 08:29:44;;;;;;;10.13;5.57;;;17.90;70.60;;;;;;5087327;28;20052;-61
2021/08/02 08:32:12;;;;;;;11.02;5.22;;;17.80;70.60;;;;;;5087121;28;20137;-65
2021/08/02 08:34:39;;;;;;;12.95;5.95;;;17.80;71.00;;;;;;5087004;28;20074;-61
2021/08/02 08:37:07;;;;;;;10.60;5.07;;;17.80;71.10;;;;;;5087128;28;20032;-62
2021/08/02 08:39:40;;;;;;;11.50;5.53;;;17.80;71.20;;;;;;5088208;28;20042;-63
2021/08/02 08:42:08;;;;;;;12.00;5.85;;;17.80;71.40;;;;;;5087959;28;20024;-67
2021/08/02 08:44:36;;;;;;;8.85;4.45;;;17.80;71.20;;;;;;5087297;28;20028;-60
2021/08/02 08:47:03;;;;;;;11.55;5.15;;;17.80;71.30;;;;;;5087043;28;20097;-59
2021/08/02 08:49:31;;;;;;;11.60;5.13;;;17.80;71.50;;;;;;5087452;28;20071;-61
2021/08/02 08:51:59;;;;;;;17.40;5.38;;;17.80;71.60;;;;;;5086748;28;20024;-61
2021/08/02 08:54:30;;;;;;;17.98;5.70;;;17.80;71.80;;;;;;5087386;28;20115;-61
2021/08/02 08:56:58;;;;;;;10.43;5.15;;;17.70;71.90;;;;;;5086678;28;20023;-58
2021/08/02 08:59:26;;;;;;;9.98;5.15;;;17.70;71.80;;;;;;5086313;28;20050;-61
2021/08/02 09:02:04;;;;;;;10.55;4.57;;;17.70;72.00;;;;;;5087304;28;20045;-62
2021/08/02 09:04:32;;;;;;;12.63;4.70;;;17.70;72.00;;;;;;5086990;28;20059;-62
2021/08/02 09:07:01;;;;;;;10.85;4.22;;;17.70;72.20;;;;;;5085986;28;20554;-62
2021/08/02 09:09:34;;;;;;;8.80;4.65;;;17.70;72.20;;;;;;5086740;28;20100;-61
2021/08/02 09:12:19;;;;;;;9.18;3.90;;;17.70;72.30;;;;;;5086396;28;20020;-61
2021/08/02 09:14:54;;;;;;;7.57;3.45;;;17.70;72.30;;;;;;5086757;28;20063;-62
2021/08/02 09:17:36;;;;;;;7.70;3.85;;;17.60;72.40;;;;;;5085248;28;20778;-61
2021/08/02 09:20:22;;;;;;;9.80;4.80;;;17.60;72.50;;;;;;5083668;28;20108;-63
2021/08/02 09:22:50;;;;;;;10.15;4.15;;;17.60;72.80;;;;;;5087123;28;20035;-56
2021/08/02 09:25:25;;;;;;;14.82;3.80;;;17.60;72.90;;;;;;5096845;28;20127;-62
2021/08/02 09:27:53;;;;;;;13.57;4.45;;;17.60;73.00;;;;;;5094403;28;20035;-64
2021/08/02 09:30:23;;;;;;;10.30;4.28;;;17.60;73.00;;;;;;5096022;28;20518;-59
2021/08/02 09:33:06;;;;;;;7.10;3.80;;;17.60;73.10;;;;;;5099248;28;20031;-66
2021/08/02 09:35:36;;;;;;;8.80;4.03;;;17.60;73.30;;;;;;5096084;28;20077;-58
2021/08/02 09:38:14;;;;;;;11.00;4.20;;;17.70;73.40;;;;;;5094967;28;20031;-62
2021/08/02 09:40:44;;;;;;;8.68;4.00;;;17.60;73.40;;;;;;5097013;28;20034;-64
2021/08/02 09:43:14;;;;;;;8.88;3.60;;;17.70;73.40;;;;;;5094002;28;20026;-60
2021/08/02 09:45:46;;;;;;;9.15;3.70;;;17.70;73.40;;;;;;5091493;28;20036;-62
2021/08/02 09:48:15;;;;;;;13.02;4.15;;;17.70;73.60;;;;;;5092481;28;20499;-57
2021/08/02 09:50:44;;;;;;;7.88;3.33;;;17.70;73.40;;;;;;5095520;28;20119;-61
2021/08/02 09:53:17;;;;;;;8.80;3.83;;;17.70;73.30;;;;;;5102788;28;20026;-61
2021/08/02 09:55:47;;;;;;;11.60;3.72;;;17.70;73.20;;;;;;5096017;28;20032;-56
2021/08/02 09:58:20;;;;;;;10.27;3.72;;;17.60;73.40;;;;;;5097138;28;20123;-59
2021/08/02 10:00:48;;;;;;;10.63;3.70;;;17.60;73.40;;;;;;5099464;28;20432;-60
2021/08/02 10:03:16;;;;;;;8.25;3.67;;;17.60;73.30;;;;;;5091997;28;20939;-63
2021/08/02 10:05:44;;;;;;;10.45;3.50;;;17.60;73.20;;;;;;5096211;28;20434;-58
2021/08/02 10:08:11;;;;;;;7.65;3.13;;;17.60;73.10;;;;;;5092201;28;20023;-59
2021/08/02 10:10:39;;;;;;;6.55;3.22;;;17.60;73.10;;;;;;5097382;28;20027;-62
2021/08/02 10:13:08;;;;;;;8.93;3.45;;;17.60;73.50;;;;;;5099731;28;20039;-62
2021/08/02 10:15:36;;;;;;;6.63;3.08;;;17.60;72.90;;;;;;5077660;28;20155;-61
2021/08/02 10:18:06;;;;;;;8.90;3.70;;;17.60;72.80;;;;;;5095962;28;20024;-59
2021/08/02 10:20:36;;;;;;;8.75;3.22;;;17.70;72.90;;;;;;5095405;28;20019;-58
2021/08/02 10:23:04;;;;;;;10.65;3.55;;;17.60;72.90;;;;;;5097343;28;20535;-58
2021/08/02 10:25:40;;;;;;;7.57;2.90;;;17.70;72.90;;;;;;5097357;28;20038;-54
2021/08/02 10:28:12;;;;;;;12.20;3.33;;;17.60;73.00;;;;;;5088877;28;20494;-61
2021/08/02 10:30:41;;;;;;;6.55;2.90;;;17.60;72.80;;;;;;5091116;28;20521;-60
2021/08/02 10:33:09;;;;;;;10.65;3.10;;;17.60;72.90;;;;;;5095455;28;20032;-58
2021/08/02 10:35:45;;;;;;;7.75;3.35;;;17.60;72.90;;;;;;5100253;28;20098;-61
2021/08/02 10:38:17;;;;;;;8.50;2.75;;;17.70;73.10;;;;;;5081438;28;20038;-57
2021/08/02 10:40:56;;;;;;;8.02;3.47;;;17.60;73.10;;;;;;5093938;28;20068;-58
2021/08/02 10:43:34;;;;;;;7.03;3.00;;;17.60;73.10;;;;;;5095961;28;20031;-58
2021/08/02 10:46:23;;;;;;;10.35;3.22;;;17.70;73.60;;;;;;5096553;28;21214;-53
2021/08/02 10:48:55;;;;;;;7.28;2.60;;;17.60;73.40;;;;;;5094318;28;20037;-59
2021/08/02 10:51:24;;;;;;;12.20;3.13;;;17.70;73.40;;;;;;5074398;28;20039;-58
2021/08/02 10:54:02;;;;;;;10.65;2.92;;;17.60;73.60;;;;;;5090282;28;20085;-59
2021/08/02 10:56:31;;;;;;;6.63;2.92;;;17.60;73.10;;;;;;5097644;28;20112;-59
2021/08/02 10:59:00;;;;;;;6.78;2.67;;;17.60;73.10;;;;;;5096380;28;20071;-59
2021/08/02 11:01:29;;;;;;;7.40;2.63;;;17.70;73.10;;;;;;5093397;28;20028;-63
2021/08/02 11:03:58;;;;;;;9.40;2.72;;;17.70;73.10;;;;;;5079265;28;20028;-62
2021/08/02 11:06:28;;;;;;;5.68;2.60;;;17.60;73.10;;;;;;5100339;28;20442;-55
2021/08/02 11:08:58;;;;;;;7.68;2.63;;;17.60;73.10;;;;;;5097702;28;20080;-61
2021/08/02 11:11:29;;;;;;;8.20;3.10;;;17.60;73.30;;;;;;5073214;28;20038;-57
2021/08/02 11:14:12;;;;;;;5.60;2.50;;;17.60;73.00;;;;;;5101409;28;20208;-62
2021/08/02 11:16:50;;;;;;;8.57;2.63;;;17.70;73.10;;;;;;5093635;28;20474;-60
2021/08/02 11:19:22;;;;;;;7.63;2.72;;;17.60;73.00;;;;;;5091819;28;20047;-59
2021/08/02 11:22:00;;;;;;;5.38;2.20;;;17.60;73.00;;;;;;5092834;28;20032;-63
2021/08/02 11:24:32;;;;;;;8.40;2.70;;;17.70;72.90;;;;;;5098428;28;20103;-55
2021/08/02 11:27:05;;;;;;;6.93;2.85;;;17.60;72.90;;;;;;5094612;28;20036;-61
2021/08/02 11:29:36;;;;;;;5.38;2.78;;;17.60;73.00;;;;;;5105953;28;20054;-64
2021/08/02 11:32:08;;;;;;;8.20;2.63;;;17.60;73.00;;;;;;5107716;28;20076;-64
2021/08/02 11:34:37;;;;;;;5.50;2.40;;;17.60;72.90;;;;;;5107343;28;20031;-62
2021/08/02 11:37:10;;;;;;;6.80;2.50;;;17.60;73.00;;;;;;5107655;28;20482;-60
2021/08/02 11:39:55;;;;;;;9.02;2.38;;;17.60;73.00;;;;;;5108122;28;20390;-62
2021/08/02 11:42:23;;;;;;;9.55;2.88;;;17.60;73.80;;;;;;5087271;28;20023;-59
2021/08/02 11:44:53;;;;;;;6.78;2.63;;;17.60;73.30;;;;;;5100592;28;20066;-61
2021/08/02 11:47:35;;;;;;;4.80;2.38;;;17.50;73.20;;;;;;5104486;28;20065;-62
2021/08/02 11:50:05;;;;;;;4.63;2.10;;;17.50;73.30;;;;;;5104215;28;20490;-62
2021/08/02 11:52:33;;;;;;;7.18;2.72;;;17.40;73.30;;;;;;5104690;28;20081;-61
2021/08/02 11:55:03;;;;;;;13.13;2.72;;;17.50;73.60;;;;;;5106670;28;20032;-60
2021/08/02 11:57:30;;;;;;;7.22;2.50;;;17.50;73.70;;;;;;5107802;28;20042;-60
2021/08/02 12:00:12;;;;;;;8.27;2.63;;;17.40;73.90;;;;;;5108612;28;20591;-60
2021/08/02 12:02:44;;;;;;;7.80;2.88;;;17.40;74.10;;;;;;5108283;28;20591;-64
2021/08/02 12:05:28;;;;;;;7.97;1.83;;;17.40;74.30;;;;;;5108237;28;20032;-60
2021/08/02 12:08:07;;;;;;;6.43;2.08;;;17.40;74.20;;;;;;5108513;28;20044;-60
2021/08/02 12:10:34;;;;;;;9.82;2.20;;;17.40;74.20;;;;;;5107956;28;20398;-62
2021/08/02 12:13:08;;;;;;;9.60;2.97;;;17.40;74.40;;;;;;5106660;28;20046;-61
2021/08/02 12:15:36;;;;;;;5.50;2.20;;;17.40;74.80;;;;;;5108057;28;20081;-60
2021/08/02 12:18:04;;;;;;;9.05;2.88;;;17.40;74.60;;;;;;5108119;28;20484;-61
2021/08/02 12:20:32;;;;;;;7.75;2.55;;;17.40;74.90;;;;;;5089460;28;20124;-59
2021/08/02 12:23:01;;;;;;;5.95;2.47;;;17.40;75.10;;;;;;5107467;28;20042;-61
2021/08/02 12:25:39;;;;;;;9.05;2.38;;;17.30;75.10;;;;;;5107690;28;20028;-60
2021/08/02 12:28:08;;;;;;;8.77;2.33;;;17.30;75.10;;;;;;5107408;28;20031;-61
2021/08/02 12:30:38;;;;;;;6.75;2.00;;;17.30;75.20;;;;;;5107460;28;20171;-60
2021/08/02 12:33:06;;;;;;;6.35;2.20;;;17.30;75.20;;;;;;5107364;28;20494;-61
2021/08/02 12:35:35;;;;;;;8.95;2.40;;;17.30;75.40;;;;;;5107216;28;20148;-61
2021/08/02 12:38:04;;;;;;;6.97;1.92;;;17.30;75.30;;;;;;5107676;28;20107;-61
2021/08/02 12:40:33;;;;;;;5.82;2.08;;;17.30;75.40;;;;;;5107140;28;20129;-61
2021/08/02 12:43:00;;;;;;;7.45;2.45;;;17.30;75.80;;;;;;5107036;28;20055;-59
2021/08/02 12:45:27;;;;;;;8.88;2.75;;;17.30;75.80;;;;;;5107179;28;20023;-60
2021/08/02 12:47:55;;;;;;;10.50;2.67;;;17.30;75.70;;;;;;5107215;28;20063;-61
2021/08/02 12:50:23;;;;;;;12.10;2.55;;;17.30;75.80;;;;;;5107210;28;20039;-61
2021/08/02 12:52:51;;;;;;;12.10;3.20;;;17.30;76.00;;;;;;5107239;28;20031;-61
2021/08/02 12:55:19;;;;;;;9.32;2.00;;;17.20;75.80;;;;;;5107081;28;20084;-61